createdAt,value
2019-03-30T00:00:30.377Z,1002.43
2019-03-30T00:01:30.590Z,1002.37
2019-03-30T00:02:30.704Z,1002.40
2019-03-30T00:03:30.851Z,1002.40
2019-03-30T00:04:30.967Z,1002.44
2019-03-30T00:05:31.179Z,1002.45
2019-03-30T00:06:31.305Z,1002.45
2019-03-30T00:07:31.493Z,1002.44
2019-03-30T00:08:31.703Z,1002.44
2019-03-30T00:09:31.916Z,1002.43
2019-03-30T00:10:32.100Z,1002.41
2019-03-30T00:11:32.307Z,1002.39
2019-03-30T00:12:32.554Z,1002.37
2019-03-30T00:13:32.677Z,1002.40
2019-03-30T00:14:32.731Z,1002.34
2019-03-30T00:15:32.898Z,1002.36
2019-03-30T00:16:33.135Z,1002.38
2019-03-30T00:17:33.220Z,1002.36
2019-03-30T00:18:33.426Z,1002.39
2019-03-30T00:19:35.030Z,1002.37
2019-03-30T00:20:33.875Z,1002.37
2019-03-30T00:21:33.977Z,1002.34
2019-03-30T00:22:34.049Z,1002.35
2019-03-30T00:23:34.192Z,1002.32
2019-03-30T00:24:34.196Z,1002.37
2019-03-30T00:25:34.468Z,1002.34
2019-03-30T00:26:34.695Z,1002.29
2019-03-30T00:27:34.783Z,1002.34
2019-03-30T00:28:34.975Z,1002.35
2019-03-30T00:29:35.065Z,1002.28
2019-03-30T00:30:35.373Z,1002.28
2019-03-30T00:31:35.428Z,1002.29
2019-03-30T00:32:36.303Z,1002.28
2019-03-30T00:33:35.817Z,1002.28
2019-03-30T00:34:35.864Z,1002.27
2019-03-30T00:35:36.126Z,1002.32
2019-03-30T00:36:36.202Z,1002.31
2019-03-30T00:37:36.263Z,1002.35
2019-03-30T00:38:36.488Z,1002.34
2019-03-30T00:39:36.855Z,1002.32
2019-03-30T00:40:36.827Z,1002.33
2019-03-30T00:41:37.086Z,1002.29
2019-03-30T00:42:37.064Z,1002.30
2019-03-30T00:43:37.270Z,1002.33
2019-03-30T00:44:37.329Z,1002.27
2019-03-30T00:45:37.649Z,1002.28
2019-03-30T00:46:37.716Z,1002.25
2019-03-30T00:47:37.871Z,1002.26
2019-03-30T00:48:38.000Z,1002.27
2019-03-30T00:49:49.741Z,1002.29
2019-03-30T00:50:46.826Z,1002.27
2019-03-30T00:51:46.097Z,1002.27
2019-03-30T00:52:47.156Z,1002.31
2019-03-30T00:54:02.189Z,1002.33
2019-03-30T00:54:39.496Z,1002.29
2019-03-30T00:55:39.075Z,1002.29
2019-03-30T00:56:39.181Z,1002.31
2019-03-30T00:57:39.420Z,1002.32
2019-03-30T00:58:39.886Z,1002.32
2019-03-30T00:59:39.734Z,1002.31
2019-03-30T01:00:39.927Z,1002.32
2019-03-30T01:01:40.049Z,1002.31
2019-03-30T01:02:40.325Z,1002.30
2019-03-30T01:03:40.365Z,1002.32
2019-03-30T01:04:43.089Z,1002.29
2019-03-30T01:05:43.299Z,1002.28
2019-03-30T01:06:41.096Z,1002.26
2019-03-30T01:07:41.052Z,1002.31
2019-03-30T01:08:41.323Z,1002.31
2019-03-30T01:09:41.335Z,1002.27
2019-03-30T01:10:41.448Z,1002.30
2019-03-30T01:11:42.465Z,1002.28
2019-03-30T01:12:41.999Z,1002.28
2019-03-30T01:13:41.876Z,1002.30
2019-03-30T01:14:42.035Z,1002.25
2019-03-30T01:15:42.092Z,1002.21
2019-03-30T01:16:42.219Z,1002.24
2019-03-30T01:17:42.363Z,1002.26
2019-03-30T01:18:43.538Z,1002.22
2019-03-30T01:19:42.607Z,1002.20
2019-03-30T01:20:42.796Z,1002.20
2019-03-30T01:21:43.100Z,1002.18
2019-03-30T01:22:43.130Z,1002.18
2019-03-30T01:23:43.226Z,1002.15
2019-03-30T01:24:43.577Z,1002.15
2019-03-30T01:25:43.498Z,1002.16
2019-03-30T01:26:43.621Z,1002.14
2019-03-30T01:27:43.718Z,1002.10
2019-03-30T01:28:44.013Z,1002.11
2019-03-30T01:29:44.143Z,1002.09
2019-03-30T01:30:44.204Z,1002.08
2019-03-30T01:31:44.333Z,1002.05
2019-03-30T01:32:44.374Z,1002.05
2019-03-30T01:33:44.678Z,1002.08
2019-03-30T01:34:44.811Z,1002.06
2019-03-30T01:35:44.943Z,1002.10
2019-03-30T01:36:45.138Z,1002.10
2019-03-30T01:37:45.342Z,1002.06
2019-03-30T01:38:45.543Z,1002.09
2019-03-30T01:39:45.693Z,1002.10
2019-03-30T01:40:45.845Z,1002.09
2019-03-30T01:41:45.970Z,1002.08
2019-03-30T01:42:46.243Z,1002.10
2019-03-30T01:43:46.452Z,1002.05
2019-03-30T01:44:46.463Z,1002.07
2019-03-30T01:45:46.670Z,1002.03
2019-03-30T01:46:46.802Z,1002.08
2019-03-30T01:47:47.228Z,1002.05
2019-03-30T01:48:47.178Z,1002.06
2019-03-30T01:49:47.190Z,1002.05
2019-03-30T01:50:47.262Z,1002.05
2019-03-30T01:51:47.416Z,1002.03
2019-03-30T01:52:47.520Z,1002.06
2019-03-30T01:53:47.707Z,1002.07
2019-03-30T01:54:48.089Z,1002.07
2019-03-30T01:55:48.213Z,1002.06
2019-03-30T01:56:48.277Z,1002.00
2019-03-30T01:57:48.492Z,1002.02
2019-03-30T01:58:48.599Z,1002.03
2019-03-30T01:59:48.683Z,1001.99
2019-03-30T02:00:48.895Z,1001.95
2019-03-30T02:01:49.092Z,1001.99
2019-03-30T02:02:49.278Z,1001.92
2019-03-30T02:03:49.453Z,1001.94
2019-03-30T02:04:49.543Z,1001.92
2019-03-30T02:05:49.663Z,1001.95
2019-03-30T02:06:49.743Z,1001.90
2019-03-30T02:07:49.860Z,1001.91
2019-03-30T02:08:50.098Z,1001.87
2019-03-30T02:09:50.172Z,1001.92
2019-03-30T02:10:50.404Z,1001.90
2019-03-30T02:11:50.551Z,1001.86
2019-03-30T02:12:50.643Z,1001.91
2019-03-30T02:13:50.915Z,1001.86
2019-03-30T02:14:51.006Z,1001.86
2019-03-30T02:15:51.232Z,1001.85
2019-03-30T02:16:51.462Z,1001.90
2019-03-30T02:17:51.550Z,1001.84
2019-03-30T02:18:51.829Z,1001.86
2019-03-30T02:19:51.899Z,1001.83
2019-03-30T02:20:52.152Z,1001.86
2019-03-30T02:21:52.241Z,1001.84
2019-03-30T02:22:52.419Z,1001.81
2019-03-30T02:23:52.557Z,1001.81
2019-03-30T02:24:52.659Z,1001.82
2019-03-30T02:25:52.699Z,1001.80
2019-03-30T02:26:52.887Z,1001.82
2019-03-30T02:27:53.090Z,1001.78
2019-03-30T02:28:53.315Z,1001.82
2019-03-30T02:29:53.395Z,1001.81
2019-03-30T02:30:53.615Z,1001.79
2019-03-30T02:31:53.820Z,1001.75
2019-03-30T02:32:54.038Z,1001.81
2019-03-30T02:33:54.284Z,1001.76
2019-03-30T02:34:54.408Z,1001.80
2019-03-30T02:35:54.507Z,1001.80
2019-03-30T02:36:54.644Z,1001.79
2019-03-30T02:37:54.800Z,1001.81
2019-03-30T02:38:54.982Z,1001.81
2019-03-30T02:39:55.069Z,1001.82
2019-03-30T02:40:55.283Z,1001.83
2019-03-30T02:41:55.496Z,1001.80
2019-03-30T02:42:55.602Z,1001.82
2019-03-30T02:43:55.863Z,1001.75
2019-03-30T02:44:55.921Z,1001.76
2019-03-30T02:45:57.998Z,1001.76
2019-03-30T02:46:56.210Z,1001.76
2019-03-30T02:47:56.417Z,1001.80
2019-03-30T02:48:56.468Z,1001.76
2019-03-30T02:49:56.661Z,1001.75
2019-03-30T02:50:56.796Z,1001.75
2019-03-30T02:51:56.890Z,1001.73
2019-03-30T02:52:57.018Z,1001.75
2019-03-30T02:53:57.091Z,1001.69
2019-03-30T02:54:57.205Z,1001.68
2019-03-30T02:55:57.420Z,1001.67
2019-03-30T02:56:57.645Z,1001.68
2019-03-30T02:57:57.773Z,1001.69
2019-03-30T02:58:57.970Z,1001.70
2019-03-30T02:59:58.173Z,1001.67
2019-03-30T03:00:58.364Z,1001.65
2019-03-30T03:01:58.563Z,1001.66
2019-03-30T03:02:58.835Z,1001.67
2019-03-30T03:03:58.959Z,1001.63
2019-03-30T03:04:59.151Z,1001.64
2019-03-30T03:05:59.240Z,1001.58
2019-03-30T03:06:59.399Z,1001.59
2019-03-30T03:07:59.650Z,1001.55
2019-03-30T03:09:01.538Z,1001.60
2019-03-30T03:09:59.890Z,1001.61
2019-03-30T03:10:59.984Z,1001.60
2019-03-30T03:12:00.203Z,1001.60
2019-03-30T03:13:00.301Z,1001.62
2019-03-30T03:14:00.426Z,1001.59
2019-03-30T03:15:00.469Z,1001.58
2019-03-30T03:16:00.774Z,1001.58
2019-03-30T03:17:00.971Z,1001.56
2019-03-30T03:18:01.237Z,1001.50
2019-03-30T03:19:01.300Z,1001.52
2019-03-30T03:20:01.438Z,1001.49
2019-03-30T03:21:07.877Z,1001.52
2019-03-30T03:22:01.873Z,1001.44
2019-03-30T03:23:02.061Z,1001.49
2019-03-30T03:24:02.279Z,1001.44
2019-03-30T03:25:02.398Z,1001.46
2019-03-30T03:26:02.500Z,1001.44
2019-03-30T03:27:02.567Z,1001.46
2019-03-30T03:28:02.782Z,1001.44
2019-03-30T03:29:03.010Z,1001.44
2019-03-30T03:30:03.095Z,1001.40
2019-03-30T03:31:03.257Z,1001.41
2019-03-30T03:32:03.461Z,1001.36
2019-03-30T03:33:03.729Z,1001.34
2019-03-30T03:34:03.910Z,1001.35
2019-03-30T03:35:04.091Z,1001.37
2019-03-30T03:36:04.260Z,1001.33
2019-03-30T03:37:04.575Z,1001.31
2019-03-30T03:38:04.740Z,1001.32
2019-03-30T03:39:04.818Z,1001.34
2019-03-30T03:40:05.035Z,1001.35
2019-03-30T03:41:05.202Z,1001.37
2019-03-30T03:42:05.410Z,1001.33
2019-03-30T03:43:05.627Z,1001.35
2019-03-30T03:44:05.843Z,1001.33
2019-03-30T03:45:05.972Z,1001.40
2019-03-30T03:46:06.125Z,1001.36
2019-03-30T03:47:06.172Z,1001.40
2019-03-30T03:48:06.436Z,1001.39
2019-03-30T03:49:06.531Z,1001.38
2019-03-30T03:50:06.676Z,1001.39
2019-03-30T03:51:24.462Z,1001.41
2019-03-30T03:52:09.441Z,1001.38
2019-03-30T03:53:07.200Z,1001.40
2019-03-30T03:54:07.836Z,1001.41
2019-03-30T03:55:07.612Z,1001.38
2019-03-30T03:56:10.452Z,1001.41
2019-03-30T03:57:09.039Z,1001.41
2019-03-30T03:58:07.900Z,1001.39
2019-03-30T03:59:08.082Z,1001.43
2019-03-30T04:00:08.322Z,1001.42
2019-03-30T04:01:08.385Z,1001.41
2019-03-30T04:02:08.671Z,1001.38
2019-03-30T04:03:08.823Z,1001.38
2019-03-30T04:04:08.908Z,1001.41
2019-03-30T04:05:09.592Z,1001.44
2019-03-30T04:06:09.271Z,1001.42
2019-03-30T04:07:09.362Z,1001.40
2019-03-30T04:08:09.545Z,1001.41
2019-03-30T04:09:09.801Z,1001.35
2019-03-30T04:10:09.943Z,1001.40
2019-03-30T04:11:10.006Z,1001.37
2019-03-30T04:12:10.106Z,1001.37
2019-03-30T04:13:10.400Z,1001.39
2019-03-30T04:14:10.504Z,1001.36
2019-03-30T04:15:10.638Z,1001.41
2019-03-30T04:16:10.734Z,1001.36
2019-03-30T04:17:10.995Z,1001.36
2019-03-30T04:18:11.048Z,1001.36
2019-03-30T04:19:11.330Z,1001.35
2019-03-30T04:20:11.541Z,1001.35
2019-03-30T04:21:11.702Z,1001.35
2019-03-30T04:22:11.864Z,1001.33
2019-03-30T04:23:12.070Z,1001.33
2019-03-30T04:24:12.173Z,1001.33
2019-03-30T04:25:13.943Z,1001.34
2019-03-30T04:26:12.619Z,1001.37
2019-03-30T04:27:12.741Z,1001.36
2019-03-30T04:28:12.835Z,1001.35
2019-03-30T04:29:13.057Z,1001.33
2019-03-30T04:30:13.176Z,1001.34
2019-03-30T04:31:13.365Z,1001.36
2019-03-30T04:32:13.471Z,1001.36
2019-03-30T04:33:13.604Z,1001.34
2019-03-30T04:34:13.664Z,1001.31
2019-03-30T04:35:13.977Z,1001.36
2019-03-30T04:36:14.141Z,1001.37
2019-03-30T04:37:14.249Z,1001.39
2019-03-30T04:38:23.045Z,1001.41
2019-03-30T04:39:16.081Z,1001.41
2019-03-30T04:40:22.424Z,1001.42
2019-03-30T04:41:24.601Z,1001.39
2019-03-30T04:42:15.868Z,1001.39
2019-03-30T04:43:15.231Z,1001.34
2019-03-30T04:44:15.360Z,1001.37
2019-03-30T04:45:15.543Z,1001.40
2019-03-30T04:46:15.661Z,1001.41
2019-03-30T04:47:15.782Z,1001.41
2019-03-30T04:48:15.887Z,1001.43
2019-03-30T04:49:16.079Z,1001.43
2019-03-30T04:50:16.236Z,1001.42
2019-03-30T04:51:16.403Z,1001.43
2019-03-30T04:52:17.027Z,1001.36
2019-03-30T04:53:16.719Z,1001.36
2019-03-30T04:54:16.836Z,1001.35
2019-03-30T04:55:17.016Z,1001.33
2019-03-30T04:56:17.191Z,1001.29
2019-03-30T04:57:17.308Z,1001.30
2019-03-30T04:58:17.327Z,1001.32
2019-03-30T04:59:17.729Z,1001.30
2019-03-30T05:00:17.714Z,1001.32
2019-03-30T05:01:17.882Z,1001.33
2019-03-30T05:02:17.992Z,1001.31
2019-03-30T05:03:19.104Z,1001.30
2019-03-30T05:04:18.243Z,1001.29
2019-03-30T05:05:18.452Z,1001.30
2019-03-30T05:06:18.572Z,1001.34
2019-03-30T05:07:18.680Z,1001.33
2019-03-30T05:08:18.968Z,1001.38
2019-03-30T05:09:19.000Z,1001.41
2019-03-30T05:10:19.217Z,1001.40
2019-03-30T05:11:19.429Z,1001.36
2019-03-30T05:12:19.641Z,1001.34
2019-03-30T05:13:19.730Z,1001.34
2019-03-30T05:14:19.938Z,1001.33
2019-03-30T05:15:20.147Z,1001.36
2019-03-30T05:16:20.278Z,1001.29
2019-03-30T05:17:20.311Z,1001.25
2019-03-30T05:18:20.563Z,1001.26
2019-03-30T05:19:20.688Z,1001.27
2019-03-30T05:20:20.783Z,1001.21
2019-03-30T05:21:20.910Z,1001.28
2019-03-30T05:22:21.057Z,1001.29
2019-03-30T05:23:21.177Z,1001.30
2019-03-30T05:24:21.369Z,1001.27
2019-03-30T05:25:21.549Z,1001.28
2019-03-30T05:26:21.737Z,1001.28
2019-03-30T05:27:21.966Z,1001.26
2019-03-30T05:28:22.065Z,1001.27
2019-03-30T05:29:22.179Z,1001.28
2019-03-30T05:30:22.380Z,1001.26
2019-03-30T05:31:22.463Z,1001.24
2019-03-30T05:32:22.664Z,1001.25
2019-03-30T05:33:22.831Z,1001.26
2019-03-30T05:34:22.973Z,1001.25
2019-03-30T05:35:23.202Z,1001.23
2019-03-30T05:36:23.342Z,1001.25
2019-03-30T05:37:23.395Z,1001.30
2019-03-30T05:38:23.586Z,1001.26
2019-03-30T05:39:23.813Z,1001.22
2019-03-30T05:40:23.915Z,1001.25
2019-03-30T05:41:24.131Z,1001.29
2019-03-30T05:42:24.348Z,1001.33
2019-03-30T05:43:24.403Z,1001.32
2019-03-30T05:44:24.632Z,1001.34
2019-03-30T05:45:24.913Z,1001.30
2019-03-30T05:46:24.988Z,1001.30
2019-03-30T05:47:25.026Z,1001.28
2019-03-30T05:48:25.141Z,1001.26
2019-03-30T05:49:25.215Z,1001.24
2019-03-30T05:50:25.406Z,1001.24
2019-03-30T05:51:25.462Z,1001.23
2019-03-30T05:52:26.973Z,1001.19
2019-03-30T05:53:25.734Z,1001.21
2019-03-30T05:54:26.631Z,1001.18
2019-03-30T05:55:27.157Z,1001.21
2019-03-30T05:56:27.565Z,1001.19
2019-03-30T05:57:27.594Z,1001.17
2019-03-30T05:58:26.568Z,1001.19
2019-03-30T05:59:26.743Z,1001.15
2019-03-30T06:00:26.936Z,1001.17
2019-03-30T06:01:26.951Z,1001.11
2019-03-30T06:02:27.175Z,1001.14
2019-03-30T06:03:27.350Z,1001.17
2019-03-30T06:04:27.519Z,1001.18
2019-03-30T06:05:27.705Z,1001.17
2019-03-30T06:06:27.888Z,1001.14
2019-03-30T06:07:28.014Z,1001.12
2019-03-30T06:08:28.273Z,1001.18
2019-03-30T06:09:28.317Z,1001.16
2019-03-30T06:10:28.489Z,1001.16
2019-03-30T06:11:28.649Z,1001.14
2019-03-30T06:12:28.857Z,1001.10
2019-03-30T06:13:29.025Z,1001.13
2019-03-30T06:14:29.188Z,1001.16
2019-03-30T06:15:29.872Z,1001.16
2019-03-30T06:16:29.582Z,1001.18
2019-03-30T06:17:29.747Z,1001.13
2019-03-30T06:18:29.918Z,1001.14
2019-03-30T06:19:30.123Z,1001.16
2019-03-30T06:20:30.218Z,1001.19
2019-03-30T06:21:30.356Z,1001.18
2019-03-30T06:22:40.080Z,1001.16
2019-03-30T06:23:30.806Z,1001.17
2019-03-30T06:24:30.912Z,1001.16
2019-03-30T06:25:31.784Z,1001.10
2019-03-30T06:26:32.242Z,1001.12
2019-03-30T06:27:31.656Z,1001.13
2019-03-30T06:28:31.831Z,1001.12
2019-03-30T06:29:31.776Z,1001.15
2019-03-30T06:30:31.939Z,1001.18
2019-03-30T06:31:32.142Z,1001.20
2019-03-30T06:32:32.305Z,1001.22
2019-03-30T06:33:32.709Z,1001.18
2019-03-30T06:34:32.677Z,1001.16
2019-03-30T06:35:33.154Z,1001.20
2019-03-30T06:36:32.968Z,1001.17
2019-03-30T06:37:33.176Z,1001.19
2019-03-30T06:38:33.386Z,1001.17
2019-03-30T06:39:36.823Z,1001.20
2019-03-30T06:40:33.751Z,1001.16
2019-03-30T06:41:33.863Z,1001.16
2019-03-30T06:42:34.832Z,1001.17
2019-03-30T06:43:35.574Z,1001.13
2019-03-30T06:44:36.154Z,1001.19
2019-03-30T06:45:35.415Z,1001.15
2019-03-30T06:46:39.285Z,1001.15
2019-03-30T06:47:34.739Z,1001.12
2019-03-30T06:48:36.203Z,1001.16
2019-03-30T06:49:35.082Z,1001.12
2019-03-30T06:50:35.275Z,1001.14
2019-03-30T06:51:35.315Z,1001.16
2019-03-30T06:52:35.474Z,1001.17
2019-03-30T06:53:35.680Z,1001.15
2019-03-30T06:54:35.820Z,1001.17
2019-03-30T06:55:36.027Z,1001.18
2019-03-30T06:56:36.253Z,1001.18
2019-03-30T06:57:36.360Z,1001.17
2019-03-30T06:58:36.472Z,1001.19
2019-03-30T06:59:36.618Z,1001.18
2019-03-30T07:00:36.791Z,1001.16
2019-03-30T07:01:36.990Z,1001.17
2019-03-30T07:02:37.174Z,1001.17
2019-03-30T07:03:37.354Z,1001.19
2019-03-30T07:04:37.577Z,1001.21
2019-03-30T07:05:37.638Z,1001.23
2019-03-30T07:06:37.827Z,1001.24
2019-03-30T07:07:37.939Z,1001.21
2019-03-30T07:08:38.236Z,1001.20
2019-03-30T07:09:38.349Z,1001.24
2019-03-30T07:10:38.595Z,1001.23
2019-03-30T07:11:38.694Z,1001.23
2019-03-30T07:12:38.866Z,1001.22
2019-03-30T07:13:39.034Z,1001.24
2019-03-30T07:14:39.211Z,1001.22
2019-03-30T07:15:39.377Z,1001.24
2019-03-30T07:16:39.533Z,1001.23
2019-03-30T07:17:39.713Z,1001.22
2019-03-30T07:18:39.883Z,1001.23
2019-03-30T07:19:40.062Z,1001.24
2019-03-30T07:20:40.215Z,1001.21
2019-03-30T07:21:40.370Z,1001.23
2019-03-30T07:22:40.530Z,1001.22
2019-03-30T07:23:40.672Z,1001.22
2019-03-30T07:24:40.881Z,1001.23
2019-03-30T07:25:41.035Z,1001.20
2019-03-30T07:26:41.273Z,1001.19
2019-03-30T07:27:42.327Z,1001.21
2019-03-30T07:28:41.748Z,1001.22
2019-03-30T07:29:41.980Z,1001.25
2019-03-30T07:30:42.233Z,1001.18
2019-03-30T07:31:42.072Z,1001.19
2019-03-30T07:32:42.332Z,1001.19
2019-03-30T07:33:42.520Z,1001.15
2019-03-30T07:34:42.666Z,1001.15
2019-03-30T07:35:42.864Z,1001.14
2019-03-30T07:36:43.035Z,1001.14
2019-03-30T07:37:43.227Z,1001.14
2019-03-30T07:38:43.439Z,1001.16
2019-03-30T07:39:43.680Z,1001.13
2019-03-30T07:40:43.708Z,1001.15
2019-03-30T07:41:43.861Z,1001.16
2019-03-30T07:42:44.001Z,1001.15
2019-03-30T07:43:44.235Z,1001.12
2019-03-30T07:44:44.971Z,1001.17
2019-03-30T07:45:44.524Z,1001.13
2019-03-30T07:46:44.677Z,1001.16
2019-03-30T07:47:44.948Z,1001.16
2019-03-30T07:48:45.156Z,1001.15
2019-03-30T07:49:45.784Z,1001.14
2019-03-30T07:50:45.388Z,1001.13
2019-03-30T07:51:45.633Z,1001.16
2019-03-30T07:52:45.822Z,1001.16
2019-03-30T07:53:46.593Z,1001.15
2019-03-30T07:54:48.762Z,1001.20
2019-03-30T07:55:46.828Z,1001.20
2019-03-30T07:56:47.868Z,1001.19
2019-03-30T07:57:47.889Z,1001.23
2019-03-30T07:58:48.092Z,1001.24
2019-03-30T07:59:47.924Z,1001.21
2019-03-30T08:00:48.988Z,1001.24
2019-03-30T08:01:48.486Z,1001.22
2019-03-30T08:02:48.075Z,1001.19
2019-03-30T08:03:47.980Z,1001.17
2019-03-30T08:04:48.566Z,1001.17
2019-03-30T08:05:48.290Z,1001.14
2019-03-30T08:06:49.909Z,1001.13
2019-03-30T08:07:48.658Z,1001.10
2019-03-30T08:08:48.586Z,1001.11
2019-03-30T08:09:49.132Z,1001.10
2019-03-30T08:10:49.151Z,1001.07
2019-03-30T08:11:49.066Z,1001.07
2019-03-30T08:12:49.339Z,1001.11
2019-03-30T08:13:49.450Z,1001.13
2019-03-30T08:14:51.486Z,1001.11
2019-03-30T08:15:50.812Z,1001.12
2019-03-30T08:16:50.468Z,1001.14
2019-03-30T08:17:50.722Z,1001.14
2019-03-30T08:18:52.023Z,1001.14
2019-03-30T08:19:50.629Z,1001.06
2019-03-30T08:20:51.135Z,1001.08
2019-03-30T08:21:50.678Z,1001.07
2019-03-30T08:22:51.558Z,1001.08
2019-03-30T08:23:51.087Z,1001.06
2019-03-30T08:24:51.397Z,1001.06
2019-03-30T08:25:51.638Z,1001.03
2019-03-30T08:26:58.960Z,1001.05
2019-03-30T08:28:00.051Z,1001.00
2019-03-30T08:28:53.799Z,1000.96
2019-03-30T08:30:03.649Z,1000.95
2019-03-30T08:31:10.195Z,1000.93
2019-03-30T08:31:52.487Z,1000.92
2019-03-30T08:32:52.606Z,1000.90
2019-03-30T08:33:52.814Z,1000.89
2019-03-30T08:34:52.985Z,1000.90
2019-03-30T08:35:54.262Z,1000.88
2019-03-30T08:36:53.249Z,1000.87
2019-03-30T08:37:53.349Z,1000.87
2019-03-30T08:38:53.577Z,1000.89
2019-03-30T08:39:53.665Z,1000.89
2019-03-30T08:40:53.786Z,1000.92
2019-03-30T08:41:58.188Z,1000.90
2019-03-30T08:42:53.995Z,1000.89
2019-03-30T08:43:54.338Z,1000.87
2019-03-30T08:44:54.437Z,1000.86
2019-03-30T08:45:54.653Z,1000.88
2019-03-30T08:46:54.730Z,1000.86
2019-03-30T08:47:57.200Z,1000.86
2019-03-30T08:48:55.703Z,1000.86
2019-03-30T08:49:55.930Z,1000.85
2019-03-30T08:50:55.921Z,1000.82
2019-03-30T08:51:56.730Z,1000.85
2019-03-30T08:52:56.705Z,1000.84
2019-03-30T08:53:56.707Z,1000.82
2019-03-30T08:54:57.058Z,1000.82
2019-03-30T08:55:57.155Z,1000.79
2019-03-30T08:56:56.815Z,1000.77
2019-03-30T08:57:57.835Z,1000.81
2019-03-30T08:58:57.772Z,1000.81
2019-03-30T08:59:58.042Z,1000.79
2019-03-30T09:00:58.672Z,1000.79
2019-03-30T09:01:58.207Z,1000.74
2019-03-30T09:02:58.805Z,1000.75
2019-03-30T09:03:59.441Z,1000.71
2019-03-30T09:04:59.924Z,1000.71
2019-03-30T09:05:59.228Z,1000.71
2019-03-30T09:06:59.268Z,1000.74
2019-03-30T09:07:59.522Z,1000.68
2019-03-30T09:08:59.149Z,1000.66
2019-03-30T09:09:59.541Z,1000.69
2019-03-30T09:10:59.726Z,1000.69
2019-03-30T09:12:01.490Z,1000.69
2019-03-30T09:12:59.829Z,1000.64
2019-03-30T09:13:59.658Z,1000.66
2019-03-30T09:15:00.470Z,1000.63
2019-03-30T09:16:00.585Z,1000.60
2019-03-30T09:17:01.598Z,1000.61
2019-03-30T09:18:01.166Z,1000.62
2019-03-30T09:19:02.119Z,1000.60
2019-03-30T09:20:01.566Z,1000.60
2019-03-30T09:21:00.339Z,1000.59
2019-03-30T09:22:00.403Z,1000.58
2019-03-30T09:23:00.641Z,1000.58
2019-03-30T09:24:09.651Z,1000.55
2019-03-30T09:25:00.977Z,1000.54
2019-03-30T09:26:01.543Z,1000.43
2019-03-30T09:27:01.274Z,1000.40
2019-03-30T09:28:01.376Z,1000.43
2019-03-30T09:29:01.581Z,1000.42
2019-03-30T09:30:01.760Z,1000.39
2019-03-30T09:31:01.890Z,1000.38
2019-03-30T09:32:13.826Z,1000.41
2019-03-30T09:33:02.315Z,1000.39
2019-03-30T09:34:02.500Z,1000.35
2019-03-30T09:35:02.702Z,1000.34
2019-03-30T09:36:02.908Z,1000.33
2019-03-30T09:37:03.035Z,1000.34
2019-03-30T09:38:03.235Z,1000.37
2019-03-30T09:39:03.526Z,1000.32
2019-03-30T09:40:04.322Z,1000.30
2019-03-30T09:41:05.337Z,1000.31
2019-03-30T09:42:04.478Z,1000.35
2019-03-30T09:43:05.457Z,1000.40
2019-03-30T09:44:04.174Z,1000.43
2019-03-30T09:45:05.910Z,1000.49
2019-03-30T09:46:06.064Z,1000.49
2019-03-30T09:47:06.514Z,1000.51
2019-03-30T09:48:05.594Z,1000.52
2019-03-30T09:49:06.272Z,1000.54
2019-03-30T09:50:05.925Z,1000.47
2019-03-30T09:51:06.912Z,1000.48
2019-03-30T09:52:05.570Z,1000.44
2019-03-30T09:53:05.806Z,1000.42
2019-03-30T09:54:06.039Z,1000.35
2019-03-30T09:55:07.270Z,1000.32
2019-03-30T09:56:06.426Z,1000.32
2019-03-30T09:57:06.661Z,1000.30
2019-03-30T09:58:06.663Z,1000.26
2019-03-30T09:59:06.868Z,1000.23
2019-03-30T10:00:06.923Z,1000.20
2019-03-30T10:01:07.191Z,1000.23
2019-03-30T10:02:07.254Z,1000.18
2019-03-30T10:03:07.506Z,1000.20
2019-03-30T10:04:07.783Z,1000.14
2019-03-30T10:05:07.943Z,1000.15
2019-03-30T10:06:08.069Z,1000.14
2019-03-30T10:07:08.212Z,1000.17
2019-03-30T10:08:08.398Z,1000.18
2019-03-30T10:09:08.620Z,1000.18
2019-03-30T10:10:10.655Z,1000.16
2019-03-30T10:11:09.054Z,1000.11
2019-03-30T10:12:09.427Z,1000.14
2019-03-30T10:13:09.500Z,1000.12
2019-03-30T10:14:09.717Z,1000.11
2019-03-30T10:15:09.944Z,1000.08
2019-03-30T10:16:10.218Z,1000.04
2019-03-30T10:17:10.277Z,1000.04
2019-03-30T10:18:10.489Z,1000.02
2019-03-30T10:19:10.663Z,999.99
2019-03-30T10:20:10.872Z,1000.01
2019-03-30T10:21:10.982Z,999.96
2019-03-30T10:22:11.021Z,999.98
2019-03-30T10:23:11.302Z,999.98
2019-03-30T10:24:11.406Z,999.99
2019-03-30T10:25:11.675Z,999.97
2019-03-30T10:26:12.146Z,999.98
2019-03-30T10:27:11.974Z,999.97
2019-03-30T10:28:12.388Z,999.98
2019-03-30T10:29:12.677Z,999.96
2019-03-30T10:30:12.677Z,999.95
2019-03-30T10:31:12.821Z,999.96
2019-03-30T10:32:12.931Z,999.91
2019-03-30T10:33:13.011Z,999.92
2019-03-30T10:34:13.663Z,999.92
2019-03-30T10:35:13.380Z,999.87
2019-03-30T10:36:15.371Z,999.85
2019-03-30T10:37:13.786Z,999.90
2019-03-30T10:38:13.968Z,999.85
2019-03-30T10:39:14.148Z,999.83
2019-03-30T10:40:14.945Z,999.88
2019-03-30T10:41:14.568Z,999.87
2019-03-30T10:42:14.796Z,999.81
2019-03-30T10:43:14.978Z,999.83
2019-03-30T10:44:15.200Z,999.81
2019-03-30T10:45:15.366Z,999.82
2019-03-30T10:46:15.526Z,999.83
2019-03-30T10:47:15.694Z,999.81
2019-03-30T10:48:15.799Z,999.83
2019-03-30T10:49:16.038Z,999.80
2019-03-30T10:50:16.237Z,999.77
2019-03-30T10:51:16.431Z,999.77
2019-03-30T10:52:16.497Z,999.78
2019-03-30T10:53:16.631Z,999.75
2019-03-30T10:54:17.333Z,999.72
2019-03-30T10:55:17.074Z,999.73
2019-03-30T10:56:17.307Z,999.73
2019-03-30T10:57:17.586Z,999.71
2019-03-30T10:58:17.791Z,999.71
2019-03-30T10:59:17.832Z,999.67
2019-03-30T11:00:17.912Z,999.72
2019-03-30T11:01:18.175Z,999.70
2019-03-30T11:02:18.784Z,999.69
2019-03-30T11:03:18.635Z,999.66
2019-03-30T11:04:18.818Z,999.64
2019-03-30T11:05:18.766Z,999.64
2019-03-30T11:06:18.916Z,999.62
2019-03-30T11:07:19.030Z,999.62
2019-03-30T11:08:19.275Z,999.61
2019-03-30T11:09:19.560Z,999.58
2019-03-30T11:10:19.646Z,999.56
2019-03-30T11:11:20.934Z,999.55
2019-03-30T11:12:20.073Z,999.53
2019-03-30T11:13:20.157Z,999.49
2019-03-30T11:14:20.297Z,999.46
2019-03-30T11:15:20.448Z,999.44
2019-03-30T11:16:20.768Z,999.49
2019-03-30T11:17:20.922Z,999.49
2019-03-30T11:18:21.135Z,999.38
2019-03-30T11:19:21.292Z,999.39
2019-03-30T11:20:22.455Z,999.37
2019-03-30T11:21:21.807Z,999.35
2019-03-30T11:22:21.849Z,999.32
2019-03-30T11:23:22.070Z,999.45
2019-03-30T11:24:22.217Z,999.33
2019-03-30T11:25:22.337Z,999.33
2019-03-30T11:26:22.507Z,999.30
2019-03-30T11:27:22.680Z,999.26
2019-03-30T11:28:22.777Z,999.28
2019-03-30T11:29:22.986Z,999.21
2019-03-30T11:30:23.135Z,999.23
2019-03-30T11:31:23.285Z,999.23
2019-03-30T11:32:23.427Z,999.21
2019-03-30T11:33:23.532Z,999.21
2019-03-30T11:34:23.868Z,999.17
2019-03-30T11:35:23.847Z,999.09
2019-03-30T11:36:24.050Z,999.13
2019-03-30T11:37:24.673Z,999.06
2019-03-30T11:38:24.290Z,999.07
2019-03-30T11:39:24.525Z,999.04
2019-03-30T11:40:24.674Z,999.07
2019-03-30T11:41:25.128Z,999.05
2019-03-30T11:42:25.159Z,999.07
2019-03-30T11:43:25.196Z,999.01
2019-03-30T11:44:25.303Z,998.98
2019-03-30T11:45:25.584Z,998.80
2019-03-30T11:46:25.764Z,999.03
2019-03-30T11:47:26.123Z,998.91
2019-03-30T11:48:26.165Z,998.89
2019-03-30T11:49:26.298Z,998.92
2019-03-30T11:50:26.496Z,998.95
2019-03-30T11:51:26.691Z,998.91
2019-03-30T11:52:26.916Z,998.84
2019-03-30T11:53:27.037Z,998.82
2019-03-30T11:54:27.248Z,998.86
2019-03-30T11:55:27.405Z,998.82
2019-03-30T11:56:27.581Z,998.82
2019-03-30T11:57:27.753Z,998.76
2019-03-30T11:58:27.941Z,998.74
2019-03-30T11:59:28.093Z,998.74
2019-03-30T12:00:28.342Z,998.69
2019-03-30T12:01:28.327Z,998.68
2019-03-30T12:02:28.604Z,998.75
2019-03-30T12:03:28.733Z,998.74
2019-03-30T12:04:28.946Z,998.61
2019-03-30T12:05:29.026Z,998.56
2019-03-30T12:06:29.231Z,998.58
2019-03-30T12:07:29.321Z,998.50
2019-03-30T12:08:29.644Z,998.60
2019-03-30T12:09:29.849Z,998.56
2019-03-30T12:10:30.052Z,998.50
2019-03-30T12:11:30.152Z,998.54